This is the latest recevied weather packets stored in our database for station/object HS5SQI-2. If no packets are shown the sender has not sent any weather packets the latest 10 day(s).
| Time | Temp. | Humidity | Pressure | Rain* | Wind** | Luminosity | Snow |
|---|---|---|---|---|---|---|---|
| 1777770479 | 33.89° C | 69% | 1008 hPa | - | - | 0 W/m² | - |
| 1777769857 | 34.44° C | 68% | 1008 hPa | - | - | 0 W/m² | - |
| 1777769235 | 33.89° C | 70% | 1008 hPa | - | - | 0 W/m² | - |
| 1777768613 | 33.89° C | 71% | 1007 hPa | - | - | 0 W/m² | - |
| 1777767991 | 33.33° C | 72% | 1007 hPa | - | - | 0 W/m² | - |
| 1777767369 | 32.78° C | 74% | 1007 hPa | - | - | 0 W/m² | - |
| 1777766747 | 32.78° C | 75% | 1007 hPa | - | - | 0 W/m² | - |
| 1777766125 | 32.22° C | 76% | 1007 hPa | - | - | 0 W/m² | - |
| 1777765503 | 32.22° C | 75% | 1007 hPa | - | - | 0 W/m² | - |
| 1777764881 | 32.22° C | 75% | 1007 hPa | - | - | 0 W/m² | - |
| 1777764259 | 31.11° C | 77% | 1007 hPa | - | - | 0 W/m² | - |
| 1777763637 | 31.67° C | 76% | 1006 hPa | - | - | 0 W/m² | - |
| 1777763015 | 31.11° C | 78% | 1006 hPa | - | - | 0 W/m² | - |
| 1777762393 | 30.56° C | 80% | 1006 hPa | - | - | 0 W/m² | - |
| 1777761771 | 31.11° C | 77% | 1006 hPa | - | - | 0 W/m² | - |
| 1777761149 | 31.67° C | 76% | 1006 hPa | - | - | 0 W/m² | - |
| 1777760527 | 31.11° C | 78% | 1006 hPa | - | - | 0 W/m² | - |
| 1777759905 | 31.67° C | 76% | 1006 hPa | - | - | 0 W/m² | - |
| 1777759282 | 31.67° C | 76% | 1006 hPa | - | - | 0 W/m² | - |
| 1777758661 | 32.22° C | 74% | 1006 hPa | - | - | 0 W/m² | - |
| 1777758039 | 32.22° C | 73% | 1006 hPa | - | - | 0 W/m² | - |
| 1777757417 | 32.22° C | 74% | 1006 hPa | - | - | 0 W/m² | - |
| 1777756795 | 32.22° C | 74% | 1006 hPa | - | - | 0 W/m² | - |
| 1777756173 | 31.67° C | 75% | 1006 hPa | - | - | 0 W/m² | - |
| 1777755551 | 31.67° C | 75% | 1006 hPa | - | - | 0 W/m² | - |
* Rain since midnight (hover to see other rain measurements)
** Current wind speed in m/s (hover to see current wind gust speed)